sensor_id;sensor_type;location;lat;lon;timestamp;temperature;humidity
20422;DHT22;10370;53.102;18.034;2023-05-21T00:00:42;14.90;99.90
20422;DHT22;10370;53.102;18.034;2023-05-21T00:06:19;14.80;99.90
20422;DHT22;10370;53.102;18.034;2023-05-21T00:12:05;14.80;99.90
20422;DHT22;10370;53.102;18.034;2023-05-21T00:17:42;14.70;99.90
20422;DHT22;10370;53.102;18.034;2023-05-21T00:23:22;14.60;99.90
20422;DHT22;10370;53.102;18.034;2023-05-21T00:29:14;14.50;99.90
20422;DHT22;10370;53.102;18.034;2023-05-21T00:35:11;14.50;99.90
20422;DHT22;10370;53.102;18.034;2023-05-21T00:41:20;14.50;99.90
20422;DHT22;10370;53.102;18.034;2023-05-21T00:47:20;14.50;99.90
20422;DHT22;10370;53.102;18.034;2023-05-21T00:53:03;14.40;99.90
20422;DHT22;10370;53.102;18.034;2023-05-21T00:58:54;14.30;99.90
20422;DHT22;10370;53.102;18.034;2023-05-21T01:04:52;14.20;99.90
20422;DHT22;10370;53.102;18.034;2023-05-21T01:10:41;14.20;99.90
20422;DHT22;10370;53.102;18.034;2023-05-21T01:16:13;14.10;99.90
20422;DHT22;10370;53.102;18.034;2023-05-21T01:22:04;14.10;99.90
20422;DHT22;10370;53.102;18.034;2023-05-21T01:27:51;14.00;99.90
20422;DHT22;10370;53.102;18.034;2023-05-21T01:39:29;13.80;99.90
20422;DHT22;10370;53.102;18.034;2023-05-21T01:45:27;13.80;99.90
20422;DHT22;10370;53.102;18.034;2023-05-21T01:51:07;13.70;99.90
20422;DHT22;10370;53.102;18.034;2023-05-21T01:56:48;13.70;99.90
20422;DHT22;10370;53.102;18.034;2023-05-21T02:02:33;13.70;99.90
20422;DHT22;10370;53.102;18.034;2023-05-21T02:08:27;13.60;99.90
20422;DHT22;10370;53.102;18.034;2023-05-21T02:13:59;13.50;99.90
20422;DHT22;10370;53.102;18.034;2023-05-21T02:19:44;13.40;99.90
20422;DHT22;10370;53.102;18.034;2023-05-21T02:26:04;13.40;99.90
20422;DHT22;10370;53.102;18.034;2023-05-21T02:31:51;13.20;99.90
20422;DHT22;10370;53.102;18.034;2023-05-21T02:37:58;13.20;99.90
20422;DHT22;10370;53.102;18.034;2023-05-21T02:43:55;13.30;99.90
20422;DHT22;10370;53.102;18.034;2023-05-21T02:49:51;13.30;99.90
20422;DHT22;10370;53.102;18.034;2023-05-21T02:55:34;13.30;99.90
20422;DHT22;10370;53.102;18.034;2023-05-21T03:01:31;13.30;99.90
20422;DHT22;10370;53.102;18.034;2023-05-21T03:07:11;13.40;99.90
20422;DHT22;10370;53.102;18.034;2023-05-21T03:12:49;13.40;99.90
20422;DHT22;10370;53.102;18.034;2023-05-21T03:18:46;13.30;99.90
20422;DHT22;10370;53.102;18.034;2023-05-21T03:24:43;13.40;99.90
20422;DHT22;10370;53.102;18.034;2023-05-21T03:30:46;13.50;99.90
20422;DHT22;10370;53.102;18.034;2023-05-21T03:36:43;13.60;99.90
20422;DHT22;10370;53.102;18.034;2023-05-21T03:42:38;13.80;99.90
20422;DHT22;10370;53.102;18.034;2023-05-21T03:48:18;13.90;99.90
20422;DHT22;10370;53.102;18.034;2023-05-21T03:54:03;14.20;99.90
20422;DHT22;10370;53.102;18.034;2023-05-21T03:59:49;14.30;99.90
20422;DHT22;10370;53.102;18.034;2023-05-21T04:05:48;14.30;99.90
20422;DHT22;10370;53.102;18.034;2023-05-21T04:11:42;14.50;99.90
20422;DHT22;10370;53.102;18.034;2023-05-21T04:17:44;14.70;99.90
20422;DHT22;10370;53.102;18.034;2023-05-21T04:23:39;14.90;99.90
20422;DHT22;10370;53.102;18.034;2023-05-21T04:29:18;15.20;99.90
20422;DHT22;10370;53.102;18.034;2023-05-21T04:35:15;15.50;99.90
20422;DHT22;10370;53.102;18.034;2023-05-21T04:41:33;15.90;99.90
20422;DHT22;10370;53.102;18.034;2023-05-21T04:47:22;16.60;99.90
20422;DHT22;10370;53.102;18.034;2023-05-21T04:53:23;17.60;99.90
20422;DHT22;10370;53.102;18.034;2023-05-21T04:59:12;19.30;99.90
20422;DHT22;10370;53.102;18.034;2023-05-21T05:04:52;21.50;99.90
20422;DHT22;10370;53.102;18.034;2023-05-21T05:10:37;22.60;99.90
20422;DHT22;10370;53.102;18.034;2023-05-21T05:16:15;22.50;99.90
20422;DHT22;10370;53.102;18.034;2023-05-21T06:38:21;21.30;99.90
20422;DHT22;10370;53.102;18.034;2023-05-21T06:43:47;21.00;99.90
20422;DHT22;10370;53.102;18.034;2023-05-21T06:49:12;21.10;99.90
20422;DHT22;10370;53.102;18.034;2023-05-21T06:54:35;20.80;99.90
20422;DHT22;10370;53.102;18.034;2023-05-21T06:59:56;20.80;99.90
20422;DHT22;10370;53.102;18.034;2023-05-21T07:05:17;21.00;99.90
20422;DHT22;10370;53.102;18.034;2023-05-21T07:10:40;21.10;99.90
20422;DHT22;10370;53.102;18.034;2023-05-21T07:16:04;21.10;99.90
20422;DHT22;10370;53.102;18.034;2023-05-21T07:21:28;21.30;99.90
20422;DHT22;10370;53.102;18.034;2023-05-21T07:26:55;21.40;99.90
20422;DHT22;10370;53.102;18.034;2023-05-21T07:32:16;21.50;99.90
20422;DHT22;10370;53.102;18.034;2023-05-21T07:37:38;21.70;99.90
20422;DHT22;10370;53.102;18.034;2023-05-21T07:43:01;21.70;99.90
20422;DHT22;10370;53.102;18.034;2023-05-21T07:48:25;21.80;99.90
20422;DHT22;10370;53.102;18.034;2023-05-21T07:53:47;22.10;99.90
20422;DHT22;10370;53.102;18.034;2023-05-21T07:59:08;22.00;99.90
20422;DHT22;10370;53.102;18.034;2023-05-21T08:04:29;22.20;99.90
20422;DHT22;10370;53.102;18.034;2023-05-21T08:09:53;22.40;99.90
20422;DHT22;10370;53.102;18.034;2023-05-21T08:15:16;22.60;99.90
20422;DHT22;10370;53.102;18.034;2023-05-21T08:20:40;22.60;99.90
20422;DHT22;10370;53.102;18.034;2023-05-21T08:26:03;22.50;98.80
20422;DHT22;10370;53.102;18.034;2023-05-21T08:31:28;22.50;99.30
20422;DHT22;10370;53.102;18.034;2023-05-21T08:36:54;22.90;99.70
20422;DHT22;10370;53.102;18.034;2023-05-21T08:42:49;22.70;98.10
20422;DHT22;10370;53.102;18.034;2023-05-21T08:48:15;22.90;98.00
20422;DHT22;10370;53.102;18.034;2023-05-21T08:53:39;22.90;98.30
20422;DHT22;10370;53.102;18.034;2023-05-21T08:59:08;22.90;97.90
20422;DHT22;10370;53.102;18.034;2023-05-21T09:04:37;23.20;97.50
20422;DHT22;10370;53.102;18.034;2023-05-21T09:10:06;23.20;96.40
20422;DHT22;10370;53.102;18.034;2023-05-21T09:15:33;23.20;97.40
20422;DHT22;10370;53.102;18.034;2023-05-21T09:21:45;23.50;96.40
20422;DHT22;10370;53.102;18.034;2023-05-21T09:26:45;23.50;96.70
20422;DHT22;10370;53.102;18.034;2023-05-21T09:32:11;23.50;95.50
20422;DHT22;10370;53.102;18.034;2023-05-21T09:37:43;23.70;96.20
20422;DHT22;10370;53.102;18.034;2023-05-21T09:43:11;23.50;94.50
20422;DHT22;10370;53.102;18.034;2023-05-21T09:48:41;23.60;95.10
20422;DHT22;10370;53.102;18.034;2023-05-21T09:54:07;23.80;94.50
20422;DHT22;10370;53.102;18.034;2023-05-21T09:59:39;24.00;94.60
20422;DHT22;10370;53.102;18.034;2023-05-21T10:05:07;23.90;93.10
20422;DHT22;10370;53.102;18.034;2023-05-21T10:10:33;23.90;92.90
20422;DHT22;10370;53.102;18.034;2023-05-21T10:16:00;24.00;91.40
20422;DHT22;10370;53.102;18.034;2023-05-21T10:21:29;24.10;90.90
20422;DHT22;10370;53.102;18.034;2023-05-21T10:27:01;23.90;90.80
20422;DHT22;10370;53.102;18.034;2023-05-21T10:32:28;24.10;91.90
20422;DHT22;10370;53.102;18.034;2023-05-21T10:37:55;24.10;91.70
20422;DHT22;10370;53.102;18.034;2023-05-21T11:00:27;24.10;85.60
20422;DHT22;10370;53.102;18.034;2023-05-21T11:05:56;24.70;87.40
20422;DHT22;10370;53.102;18.034;2023-05-21T11:11:58;24.40;84.70
20422;DHT22;10370;53.102;18.034;2023-05-21T11:17:41;24.50;85.00
20422;DHT22;10370;53.102;18.034;2023-05-21T11:23:09;24.60;81.00
20422;DHT22;10370;53.102;18.034;2023-05-21T11:28:36;24.50;83.20
20422;DHT22;10370;53.102;18.034;2023-05-21T11:34:22;24.80;82.70
20422;DHT22;10370;53.102;18.034;2023-05-21T11:39:54;24.80;83.50
20422;DHT22;10370;53.102;18.034;2023-05-21T11:45:22;24.90;83.30
20422;DHT22;10370;53.102;18.034;2023-05-21T11:50:46;24.80;83.90
20422;DHT22;10370;53.102;18.034;2023-05-21T11:56:14;24.60;81.80
20422;DHT22;10370;53.102;18.034;2023-05-21T12:01:43;24.50;81.10
20422;DHT22;10370;53.102;18.034;2023-05-21T12:07:08;24.50;82.60
20422;DHT22;10370;53.102;18.034;2023-05-21T12:12:36;24.60;83.20
20422;DHT22;10370;53.102;18.034;2023-05-21T12:18:14;24.70;84.10
20422;DHT22;10370;53.102;18.034;2023-05-21T12:23:39;24.80;82.60
20422;DHT22;10370;53.102;18.034;2023-05-21T12:29:05;24.80;82.10
20422;DHT22;10370;53.102;18.034;2023-05-21T12:34:48;24.90;84.20
20422;DHT22;10370;53.102;18.034;2023-05-21T12:40:15;24.80;83.10
20422;DHT22;10370;53.102;18.034;2023-05-21T12:45:41;24.70;83.40
20422;DHT22;10370;53.102;18.034;2023-05-21T12:51:07;24.70;80.80
20422;DHT22;10370;53.102;18.034;2023-05-21T12:56:43;24.40;81.50
20422;DHT22;10370;53.102;18.034;2023-05-21T13:02:12;24.40;80.40
20422;DHT22;10370;53.102;18.034;2023-05-21T13:07:38;24.20;79.30
20422;DHT22;10370;53.102;18.034;2023-05-21T13:13:07;24.50;79.80
20422;DHT22;10370;53.102;18.034;2023-05-21T13:18:33;24.30;79.30
20422;DHT22;10370;53.102;18.034;2023-05-21T13:23:58;24.30;78.80
20422;DHT22;10370;53.102;18.034;2023-05-21T13:29:24;24.40;79.50
20422;DHT22;10370;53.102;18.034;2023-05-21T13:34:49;24.50;78.40
20422;DHT22;10370;53.102;18.034;2023-05-21T13:40:18;24.40;77.30
20422;DHT22;10370;53.102;18.034;2023-05-21T13:45:46;24.40;77.20
20422;DHT22;10370;53.102;18.034;2023-05-21T13:51:13;24.50;77.10
20422;DHT22;10370;53.102;18.034;2023-05-21T13:56:53;24.40;77.00
20422;DHT22;10370;53.102;18.034;2023-05-21T14:02:18;24.40;77.50
20422;DHT22;10370;53.102;18.034;2023-05-21T14:07:42;24.50;76.40
20422;DHT22;10370;53.102;18.034;2023-05-21T14:13:07;24.50;74.20
20422;DHT22;10370;53.102;18.034;2023-05-21T14:18:41;24.50;74.60
20422;DHT22;10370;53.102;18.034;2023-05-21T14:24:07;24.50;75.00
20422;DHT22;10370;53.102;18.034;2023-05-21T14:29:31;24.60;75.50
20422;DHT22;10370;53.102;18.034;2023-05-21T14:34:57;24.50;75.00
20422;DHT22;10370;53.102;18.034;2023-05-21T14:40:24;24.60;75.80
20422;DHT22;10370;53.102;18.034;2023-05-21T14:45:50;24.40;72.40
20422;DHT22;10370;53.102;18.034;2023-05-21T14:51:16;24.30;71.70
20422;DHT22;10370;53.102;18.034;2023-05-21T14:56:42;24.30;74.10
20422;DHT22;10370;53.102;18.034;2023-05-21T15:02:07;24.20;73.00
20422;DHT22;10370;53.102;18.034;2023-05-21T15:07:32;24.20;71.50
20422;DHT22;10370;53.102;18.034;2023-05-21T15:12:59;24.10;70.70
20422;DHT22;10370;53.102;18.034;2023-05-21T15:18:24;23.90;69.60
20422;DHT22;10370;53.102;18.034;2023-05-21T15:23:49;23.70;69.10
20422;DHT22;10370;53.102;18.034;2023-05-21T15:29:17;23.70;69.70
20422;DHT22;10370;53.102;18.034;2023-05-21T15:34:44;23.60;69.90
20422;DHT22;10370;53.102;18.034;2023-05-21T15:40:10;23.50;70.40
20422;DHT22;10370;53.102;18.034;2023-05-21T15:45:34;23.40;68.80
20422;DHT22;10370;53.102;18.034;2023-05-21T15:50:59;23.40;66.00
20422;DHT22;10370;53.102;18.034;2023-05-21T15:56:24;23.30;66.70
20422;DHT22;10370;53.102;18.034;2023-05-21T16:01:50;23.30;66.90
20422;DHT22;10370;53.102;18.034;2023-05-21T16:07:16;23.30;67.90
20422;DHT22;10370;53.102;18.034;2023-05-21T16:12:42;23.30;67.20
20422;DHT22;10370;53.102;18.034;2023-05-21T16:18:04;23.30;68.30
20422;DHT22;10370;53.102;18.034;2023-05-21T16:23:28;23.20;67.20
20422;DHT22;10370;53.102;18.034;2023-05-21T16:28:51;23.20;67.30
20422;DHT22;10370;53.102;18.034;2023-05-21T16:34:15;23.30;66.70
20422;DHT22;10370;53.102;18.034;2023-05-21T16:39:39;23.30;66.40
20422;DHT22;10370;53.102;18.034;2023-05-21T16:45:01;23.40;67.70
20422;DHT22;10370;53.102;18.034;2023-05-21T16:50:23;23.40;65.80
20422;DHT22;10370;53.102;18.034;2023-05-21T16:55:47;23.30;66.60
20422;DHT22;10370;53.102;18.034;2023-05-21T17:01:10;23.20;65.60
20422;DHT22;10370;53.102;18.034;2023-05-21T17:06:38;23.20;65.90
20422;DHT22;10370;53.102;18.034;2023-05-21T17:12:04;23.00;65.40
20422;DHT22;10370;53.102;18.034;2023-05-21T17:17:26;23.00;65.60
20422;DHT22;10370;53.102;18.034;2023-05-21T17:22:50;22.90;65.40
20422;DHT22;10370;53.102;18.034;2023-05-21T17:28:11;22.80;65.40
20422;DHT22;10370;53.102;18.034;2023-05-21T17:33:36;22.70;66.60
20422;DHT22;10370;53.102;18.034;2023-05-21T17:39:01;22.70;67.00
20422;DHT22;10370;53.102;18.034;2023-05-21T17:44:28;22.60;66.80
20422;DHT22;10370;53.102;18.034;2023-05-21T17:49:55;22.40;68.00
20422;DHT22;10370;53.102;18.034;2023-05-21T17:55:24;22.30;68.70
20422;DHT22;10370;53.102;18.034;2023-05-21T18:00:46;22.10;69.90
20422;DHT22;10370;53.102;18.034;2023-05-21T18:06:14;21.90;70.20
20422;DHT22;10370;53.102;18.034;2023-05-21T18:11:41;21.70;71.30
20422;DHT22;10370;53.102;18.034;2023-05-21T18:17:09;21.60;71.30
20422;DHT22;10370;53.102;18.034;2023-05-21T18:22:38;21.40;72.20
20422;DHT22;10370;53.102;18.034;2023-05-21T18:28:00;21.20;73.70
20422;DHT22;10370;53.102;18.034;2023-05-21T18:33:25;21.00;75.00
20422;DHT22;10370;53.102;18.034;2023-05-21T18:38:47;20.70;76.30
20422;DHT22;10370;53.102;18.034;2023-05-21T18:44:10;20.50;77.90
20422;DHT22;10370;53.102;18.034;2023-05-21T18:49:33;20.30;78.70
20422;DHT22;10370;53.102;18.034;2023-05-21T18:54:58;20.10;80.50
20422;DHT22;10370;53.102;18.034;2023-05-21T19:00:26;20.00;81.10
20422;DHT22;10370;53.102;18.034;2023-05-21T19:05:51;19.80;82.00
20422;DHT22;10370;53.102;18.034;2023-05-21T19:11:17;19.60;83.10
20422;DHT22;10370;53.102;18.034;2023-05-21T19:16:46;19.40;84.60
20422;DHT22;10370;53.102;18.034;2023-05-21T19:22:13;19.20;84.90
20422;DHT22;10370;53.102;18.034;2023-05-21T19:27:46;19.00;86.10
20422;DHT22;10370;53.102;18.034;2023-05-21T19:33:21;18.80;87.20
20422;DHT22;10370;53.102;18.034;2023-05-21T19:38:51;18.50;88.10
20422;DHT22;10370;53.102;18.034;2023-05-21T19:44:16;18.30;89.40
20422;DHT22;10370;53.102;18.034;2023-05-21T19:49:44;18.20;90.10
20422;DHT22;10370;53.102;18.034;2023-05-21T19:55:15;18.10;91.10
20422;DHT22;10370;53.102;18.034;2023-05-21T20:00:45;17.80;92.20
20422;DHT22;10370;53.102;18.034;2023-05-21T20:06:12;17.50;94.00
20422;DHT22;10370;53.102;18.034;2023-05-21T20:11:43;16.60;96.50
20422;DHT22;10370;53.102;18.034;2023-05-21T20:17:12;16.20;98.30
20422;DHT22;10370;53.102;18.034;2023-05-21T20:22:42;15.90;99.90
20422;DHT22;10370;53.102;18.034;2023-05-21T20:28:09;15.60;99.90
20422;DHT22;10370;53.102;18.034;2023-05-21T20:33:33;15.90;99.90
20422;DHT22;10370;53.102;18.034;2023-05-21T20:39:02;15.70;99.90
20422;DHT22;10370;53.102;18.034;2023-05-21T20:44:27;15.80;99.90
20422;DHT22;10370;53.102;18.034;2023-05-21T20:49:51;15.80;99.90
20422;DHT22;10370;53.102;18.034;2023-05-21T20:55:18;15.80;99.90
20422;DHT22;10370;53.102;18.034;2023-05-21T21:00:43;15.80;99.90
20422;DHT22;10370;53.102;18.034;2023-05-21T21:06:11;15.80;99.90
20422;DHT22;10370;53.102;18.034;2023-05-21T21:11:36;15.80;99.90
20422;DHT22;10370;53.102;18.034;2023-05-21T21:17:04;15.90;99.90
20422;DHT22;10370;53.102;18.034;2023-05-21T21:22:31;15.90;99.90
20422;DHT22;10370;53.102;18.034;2023-05-21T21:27:56;16.00;99.90
20422;DHT22;10370;53.102;18.034;2023-05-21T21:33:36;15.90;99.90
20422;DHT22;10370;53.102;18.034;2023-05-21T21:39:27;15.80;99.90
20422;DHT22;10370;53.102;18.034;2023-05-21T21:44:54;15.90;99.90
20422;DHT22;10370;53.102;18.034;2023-05-21T21:50:22;15.80;99.90
20422;DHT22;10370;53.102;18.034;2023-05-21T21:55:48;15.70;99.90
20422;DHT22;10370;53.102;18.034;2023-05-21T22:01:15;15.70;99.90
20422;DHT22;10370;53.102;18.034;2023-05-21T22:06:39;15.60;99.90
20422;DHT22;10370;53.102;18.034;2023-05-21T22:12:09;15.10;99.90
20422;DHT22;10370;53.102;18.034;2023-05-21T22:17:34;14.80;99.90
20422;DHT22;10370;53.102;18.034;2023-05-21T22:22:58;14.40;99.90
20422;DHT22;10370;53.102;18.034;2023-05-21T22:28:24;14.20;99.90
20422;DHT22;10370;53.102;18.034;2023-05-21T22:33:49;14.10;99.90
20422;DHT22;10370;53.102;18.034;2023-05-21T22:39:14;14.00;99.90
20422;DHT22;10370;53.102;18.034;2023-05-21T22:44:39;14.00;99.90
20422;DHT22;10370;53.102;18.034;2023-05-21T22:50:06;13.90;99.90
20422;DHT22;10370;53.102;18.034;2023-05-21T22:55:34;13.80;99.90
20422;DHT22;10370;53.102;18.034;2023-05-21T23:00:58;13.60;99.90
20422;DHT22;10370;53.102;18.034;2023-05-21T23:06:23;13.50;99.90
20422;DHT22;10370;53.102;18.034;2023-05-21T23:11:50;13.30;99.90
20422;DHT22;10370;53.102;18.034;2023-05-21T23:17:18;13.10;99.90
20422;DHT22;10370;53.102;18.034;2023-05-21T23:22:41;13.00;99.90
20422;DHT22;10370;53.102;18.034;2023-05-21T23:28:05;12.90;99.90
20422;DHT22;10370;53.102;18.034;2023-05-21T23:33:33;12.80;99.90
20422;DHT22;10370;53.102;18.034;2023-05-21T23:38:58;12.70;99.90
20422;DHT22;10370;53.102;18.034;2023-05-21T23:44:23;12.70;99.90
20422;DHT22;10370;53.102;18.034;2023-05-21T23:49:48;12.70;99.90
20422;DHT22;10370;53.102;18.034;2023-05-21T23:55:13;12.70;99.90
